createdAt,value
2022-10-26T00:01:00.935Z,6.35
2022-10-26T00:03:27.199Z,6.54
2022-10-26T00:05:53.465Z,6.47
2022-10-26T00:08:19.749Z,6.62
2022-10-26T00:10:46.017Z,6.65
2022-10-26T00:13:12.294Z,6.41
2022-10-26T00:15:38.561Z,6.47
2022-10-26T00:18:04.828Z,6.44
2022-10-26T00:20:31.103Z,6.68
2022-10-26T00:22:57.374Z,6.36
2022-10-26T00:25:23.672Z,6.51
2022-10-26T00:27:50.071Z,6.41
2022-10-26T00:30:16.559Z,6.17
2022-10-26T00:32:42.838Z,5.90
2022-10-26T00:35:21.205Z,5.75
2022-10-26T00:37:50.805Z,5.32
2022-10-26T00:40:17.360Z,5.66
2022-10-26T00:42:43.697Z,5.56
2022-10-26T00:45:10.034Z,5.23
2022-10-26T00:47:36.370Z,5.56
2022-10-26T00:50:02.714Z,5.63
2022-10-26T00:52:29.050Z,5.40
2022-10-26T00:54:55.381Z,5.85
2022-10-26T00:57:21.715Z,5.31
2022-10-26T00:59:48.038Z,5.76
2022-10-26T01:02:14.368Z,5.23
2022-10-26T01:04:40.707Z,5.46
2022-10-26T01:07:07.040Z,5.50
2022-10-26T01:09:33.364Z,5.23
2022-10-26T01:11:59.721Z,5.19
2022-10-26T01:14:26.048Z,5.15
2022-10-26T01:16:52.416Z,5.46
2022-10-26T01:19:18.774Z,5.49
2022-10-26T01:21:45.101Z,5.46
2022-10-26T01:24:11.429Z,5.55
2022-10-26T01:26:37.761Z,5.62
2022-10-26T01:29:04.086Z,5.40
2022-10-26T01:31:30.417Z,5.37
2022-10-26T01:33:56.745Z,5.44
2022-10-26T01:36:23.127Z,5.44
2022-10-26T01:38:49.489Z,5.40
2022-10-26T01:41:15.812Z,5.41
2022-10-26T01:43:42.133Z,5.34
2022-10-26T01:46:08.552Z,5.41
2022-10-26T01:48:34.944Z,5.43
2022-10-26T01:51:01.274Z,5.57
2022-10-26T01:53:27.601Z,5.44
2022-10-26T01:55:53.928Z,5.29
2022-10-26T01:58:20.267Z,5.55
2022-10-26T02:00:46.594Z,5.33
2022-10-26T02:03:12.960Z,5.36
2022-10-26T02:05:39.313Z,5.10
2022-10-26T02:08:05.655Z,5.24
2022-10-26T02:10:32.010Z,5.17
2022-10-26T02:12:58.360Z,5.21
2022-10-26T02:15:24.698Z,5.54
2022-10-26T02:17:51.164Z,5.20
2022-10-26T02:20:17.702Z,5.49
2022-10-26T02:22:44.036Z,5.41
2022-10-26T02:25:10.383Z,5.35
2022-10-26T02:27:36.718Z,5.30
2022-10-26T02:30:03.035Z,5.36
2022-10-26T02:32:29.362Z,5.18
2022-10-26T02:34:55.699Z,5.35
2022-10-26T02:37:22.040Z,5.62
2022-10-26T02:39:48.364Z,5.46
2022-10-26T02:42:14.708Z,5.41
2022-10-26T02:44:41.048Z,5.52
2022-10-26T02:47:07.372Z,5.31
2022-10-26T02:49:33.704Z,5.60
2022-10-26T02:52:00.057Z,5.42
2022-10-26T02:54:26.420Z,5.72
2022-10-26T02:56:52.753Z,5.70
2022-10-26T02:59:19.082Z,5.86
2022-10-26T03:01:45.470Z,5.12
2022-10-26T03:04:11.866Z,5.47
2022-10-26T03:06:38.238Z,5.54
2022-10-26T03:09:04.560Z,5.49
2022-10-26T03:11:30.888Z,5.31
2022-10-26T03:13:57.217Z,5.46
2022-10-26T03:16:23.543Z,5.57
2022-10-26T03:18:49.876Z,5.55
2022-10-26T03:21:16.206Z,5.46
2022-10-26T03:23:42.530Z,5.75
2022-10-26T03:26:08.857Z,5.58
2022-10-26T03:28:35.196Z,5.46
2022-10-26T03:31:01.520Z,5.75
2022-10-26T03:33:28.044Z,5.54
2022-10-26T03:35:54.477Z,5.59
2022-10-26T03:38:20.819Z,6.03
2022-10-26T03:40:47.140Z,5.67
2022-10-26T03:43:13.461Z,5.65
2022-10-26T03:45:39.804Z,5.62
2022-10-26T03:48:06.137Z,5.45
2022-10-26T03:50:32.473Z,5.63
2022-10-26T03:52:58.799Z,5.80
2022-10-26T03:55:25.134Z,5.73
2022-10-26T03:57:51.466Z,5.66
2022-10-26T04:00:17.800Z,5.82
2022-10-26T04:02:44.133Z,5.50
2022-10-26T04:05:10.467Z,5.32
2022-10-26T04:07:36.796Z,5.00
2022-10-26T04:10:03.140Z,5.40
2022-10-26T04:12:29.481Z,5.53
2022-10-26T04:14:55.837Z,5.44
2022-10-26T04:17:22.201Z,5.74
2022-10-26T04:19:48.542Z,6.24
2022-10-26T04:22:14.880Z,6.79
2022-10-26T04:24:41.210Z,6.79
2022-10-26T04:27:07.539Z,6.48
2022-10-26T04:29:33.878Z,6.80
2022-10-26T04:32:00.209Z,8.38
2022-10-26T04:34:26.545Z,15.61
2022-10-26T04:36:52.883Z,15.64
2022-10-26T04:39:19.218Z,11.19
2022-10-26T04:41:45.557Z,16.09
2022-10-26T04:44:11.899Z,18.34
2022-10-26T04:46:38.240Z,20.14
2022-10-26T04:49:04.580Z,21.72
2022-10-26T04:51:30.912Z,20.44
2022-10-26T04:53:57.240Z,20.20
2022-10-26T04:56:23.581Z,20.77
2022-10-26T04:58:49.919Z,21.06
2022-10-26T05:01:16.328Z,19.19
2022-10-26T05:03:42.690Z,17.72
2022-10-26T05:06:09.009Z,16.92
2022-10-26T05:08:35.379Z,16.13
2022-10-26T05:11:01.729Z,15.91
2022-10-26T05:13:28.068Z,15.62
2022-10-26T05:15:54.409Z,15.50
2022-10-26T05:18:20.756Z,14.88
2022-10-26T05:20:47.110Z,15.05
2022-10-26T05:23:13.455Z,14.95
2022-10-26T05:25:39.782Z,14.80
2022-10-26T05:28:06.132Z,14.05
2022-10-26T05:30:32.475Z,14.51
2022-10-26T05:32:58.806Z,13.86
2022-10-26T05:35:25.153Z,14.26
2022-10-26T05:37:51.487Z,14.05
2022-10-26T05:40:17.824Z,13.36
2022-10-26T05:42:44.169Z,13.43
2022-10-26T05:45:10.500Z,13.44
2022-10-26T05:47:36.835Z,12.86
2022-10-26T05:50:03.181Z,12.89
2022-10-26T05:52:29.511Z,12.87
2022-10-26T05:54:55.905Z,12.56
2022-10-26T05:57:22.280Z,12.60
2022-10-26T05:59:48.619Z,12.47
2022-10-26T06:02:15.053Z,12.50
2022-10-26T06:04:41.545Z,12.73
2022-10-26T06:07:07.882Z,12.24
2022-10-26T06:09:34.217Z,11.83
2022-10-26T06:12:00.560Z,11.65
2022-10-26T06:14:26.880Z,11.52
2022-10-26T06:16:53.221Z,11.55
2022-10-26T06:19:19.562Z,11.40
2022-10-26T06:21:45.907Z,11.61
2022-10-26T06:24:12.241Z,11.39
2022-10-26T06:26:38.568Z,11.23
2022-10-26T06:29:04.906Z,10.90
2022-10-26T06:31:31.239Z,11.50
2022-10-26T06:33:57.569Z,10.75
2022-10-26T06:36:23.910Z,10.90
2022-10-26T06:38:50.240Z,10.76
2022-10-26T06:41:16.568Z,10.51
2022-10-26T06:43:42.897Z,10.73
2022-10-26T06:46:09.228Z,10.59
2022-10-26T06:48:35.556Z,10.40
2022-10-26T06:51:01.884Z,10.66
2022-10-26T06:53:28.262Z,9.73
2022-10-26T06:55:54.637Z,10.03
2022-10-26T06:58:20.971Z,10.29
2022-10-26T07:00:47.318Z,10.18
2022-10-26T07:03:13.656Z,10.08
2022-10-26T07:05:39.989Z,9.67
2022-10-26T07:08:06.327Z,9.52
2022-10-26T07:10:32.658Z,9.62
2022-10-26T07:12:58.976Z,9.41
2022-10-26T07:15:25.319Z,9.68
2022-10-26T07:17:51.902Z,9.82
2022-10-26T07:20:18.560Z,9.61
2022-10-26T07:22:44.903Z,9.43
2022-10-26T07:25:11.246Z,9.06
2022-10-26T07:27:37.576Z,9.44
2022-10-26T07:30:03.911Z,9.12
2022-10-26T07:32:30.238Z,9.33
2022-10-26T07:34:56.574Z,9.06
2022-10-26T07:37:22.902Z,9.40
2022-10-26T07:39:49.233Z,9.18
2022-10-26T07:42:15.571Z,9.02
2022-10-26T07:44:41.903Z,9.09
2022-10-26T07:47:08.239Z,9.27
2022-10-26T07:49:34.578Z,8.89
2022-10-26T07:52:00.915Z,9.00
2022-10-26T07:54:27.240Z,8.54
2022-10-26T07:56:53.625Z,8.63
2022-10-26T07:59:19.960Z,8.89
2022-10-26T08:01:46.372Z,8.49
2022-10-26T08:04:12.774Z,8.34
2022-10-26T08:06:39.115Z,8.63
2022-10-26T08:09:05.479Z,8.41
2022-10-26T08:11:31.840Z,8.53
2022-10-26T08:13:58.188Z,8.09
2022-10-26T08:16:24.521Z,8.21
2022-10-26T08:18:50.849Z,8.32
2022-10-26T08:21:21.829Z,7.81
2022-10-26T08:23:56.690Z,7.67
2022-10-26T08:26:23.030Z,7.74
2022-10-26T08:28:49.365Z,7.78
2022-10-26T08:31:15.704Z,7.78
2022-10-26T08:33:44.942Z,7.32
2022-10-26T08:36:11.665Z,7.51
2022-10-26T08:38:37.993Z,7.12
2022-10-26T08:41:04.320Z,7.41
2022-10-26T08:43:30.657Z,7.17
2022-10-26T08:45:57.003Z,6.86
2022-10-26T08:48:23.347Z,6.97
2022-10-26T08:50:49.673Z,7.00
2022-10-26T08:53:16.004Z,6.56
2022-10-26T08:58:13.597Z,7.03
2022-10-26T09:00:39.988Z,6.78
2022-10-26T09:03:06.335Z,7.10
2022-10-26T09:05:34.796Z,6.92
2022-10-26T09:08:03.189Z,6.76
2022-10-26T09:10:29.529Z,6.69
2022-10-26T09:12:55.852Z,6.62
2022-10-26T09:15:22.196Z,6.60
2022-10-26T09:17:48.549Z,6.44
2022-10-26T09:20:14.878Z,6.48
2022-10-26T09:22:41.222Z,6.71
2022-10-26T09:25:07.959Z,6.29
2022-10-26T09:27:34.359Z,6.57
2022-10-26T09:30:00.709Z,6.07
2022-10-26T09:32:27.047Z,6.15
2022-10-26T09:34:53.382Z,6.26
2022-10-26T09:37:19.717Z,5.85
2022-10-26T09:39:46.051Z,5.99
2022-10-26T09:42:12.403Z,5.64
2022-10-26T09:44:38.741Z,5.42
2022-10-26T09:47:05.068Z,5.76
2022-10-26T09:49:31.418Z,5.42
2022-10-26T09:51:57.775Z,5.58
2022-10-26T09:54:24.139Z,5.63
2022-10-26T09:56:50.468Z,5.50
2022-10-26T09:59:16.799Z,5.56
2022-10-26T10:01:43.195Z,5.54
2022-10-26T10:04:09.558Z,5.62
2022-10-26T10:06:35.886Z,5.40
2022-10-26T10:09:02.240Z,5.61
2022-10-26T10:11:28.593Z,5.16
2022-10-26T10:13:54.920Z,5.27
2022-10-26T10:16:21.252Z,5.59
2022-10-26T10:18:47.589Z,5.46
2022-10-26T10:21:13.921Z,5.48
2022-10-26T10:23:40.249Z,5.56
2022-10-26T10:26:06.586Z,5.34
2022-10-26T10:28:32.904Z,5.18
2022-10-26T10:30:59.245Z,5.12
2022-10-26T10:33:25.576Z,5.19
2022-10-26T10:35:51.888Z,5.15
2022-10-26T10:38:18.221Z,5.23
2022-10-26T10:40:44.552Z,5.04
2022-10-26T10:43:10.862Z,5.11
2022-10-26T10:45:37.176Z,5.31
2022-10-26T10:48:03.501Z,4.93
2022-10-26T10:50:30.924Z,4.87
2022-10-26T10:52:57.252Z,4.73
2022-10-26T10:55:23.585Z,4.67
2022-10-26T10:57:50.149Z,4.77
2022-10-26T11:00:16.684Z,4.58
2022-10-26T11:02:43.055Z,4.68
2022-10-26T11:05:09.470Z,4.94
2022-10-26T11:07:35.804Z,4.82
2022-10-26T11:10:02.157Z,4.95
2022-10-26T11:12:28.561Z,4.52
2022-10-26T11:14:54.938Z,4.68
2022-10-26T11:17:21.275Z,4.43
2022-10-26T11:19:47.612Z,4.66
2022-10-26T11:22:13.942Z,4.32
2022-10-26T11:24:40.283Z,4.56
2022-10-26T11:27:06.608Z,4.57
2022-10-26T11:29:35.164Z,4.24
2022-10-26T11:32:04.633Z,4.34
2022-10-26T11:34:30.987Z,4.36
2022-10-26T11:36:57.322Z,4.25
2022-10-26T11:39:23.644Z,4.04
2022-10-26T11:41:49.975Z,4.03
2022-10-26T11:44:16.304Z,4.34
2022-10-26T11:46:42.635Z,4.24
2022-10-26T11:49:08.968Z,4.20
2022-10-26T11:51:35.301Z,4.23
2022-10-26T11:54:01.636Z,3.78
2022-10-26T11:56:27.953Z,4.31
2022-10-26T11:58:54.311Z,4.25
2022-10-26T12:01:20.766Z,4.01
2022-10-26T12:03:47.129Z,3.92
2022-10-26T12:06:13.475Z,3.97
2022-10-26T12:08:39.804Z,3.86
2022-10-26T12:13:32.351Z,3.81
2022-10-26T12:16:03.648Z,3.60
2022-10-26T12:18:50.249Z,3.71
2022-10-26T12:21:17.200Z,3.94
2022-10-26T12:23:51.529Z,3.92
2022-10-26T12:26:18.093Z,3.81
2022-10-26T12:28:44.430Z,3.33
2022-10-26T12:31:10.765Z,3.53
2022-10-26T12:33:37.086Z,3.84
2022-10-26T12:36:03.465Z,3.57
2022-10-26T12:38:32.947Z,3.70
2022-10-26T12:41:00.095Z,3.49
2022-10-26T12:43:26.431Z,3.64
2022-10-26T12:45:52.765Z,3.49
2022-10-26T12:48:27.698Z,3.65
2022-10-26T12:51:04.694Z,3.44
2022-10-26T12:53:31.032Z,3.42
2022-10-26T12:55:57.365Z,3.52
2022-10-26T12:58:23.692Z,3.60
2022-10-26T13:00:50.031Z,3.36
2022-10-26T13:03:16.361Z,3.31
2022-10-26T13:05:42.701Z,3.35
2022-10-26T13:08:09.032Z,3.32
2022-10-26T13:10:35.352Z,3.48
2022-10-26T13:13:01.700Z,3.45
2022-10-26T13:15:28.038Z,3.45
2022-10-26T13:17:54.374Z,3.11
2022-10-26T13:20:20.726Z,3.10
2022-10-26T13:22:47.172Z,3.45
2022-10-26T13:25:13.627Z,3.45
2022-10-26T13:27:39.963Z,3.01
2022-10-26T13:30:06.283Z,3.29
2022-10-26T13:32:32.604Z,3.26
2022-10-26T13:34:58.927Z,3.25
2022-10-26T13:37:25.268Z,3.11
2022-10-26T13:39:51.589Z,3.27
2022-10-26T13:42:17.925Z,3.28
2022-10-26T13:44:44.250Z,3.21
2022-10-26T13:47:10.607Z,3.15
2022-10-26T13:49:36.939Z,3.36
2022-10-26T13:52:03.263Z,3.03
2022-10-26T13:54:29.591Z,3.38
2022-10-26T13:56:55.922Z,3.22
2022-10-26T13:59:22.251Z,3.23
2022-10-26T14:01:48.624Z,3.30
2022-10-26T14:04:14.979Z,2.92
2022-10-26T14:06:41.300Z,3.11
2022-10-26T14:09:07.632Z,3.28
2022-10-26T14:11:33.963Z,3.28
2022-10-26T14:14:00.344Z,3.28
2022-10-26T14:16:26.675Z,3.01
2022-10-26T14:18:53.016Z,2.96
2022-10-26T14:21:19.346Z,3.04
2022-10-26T14:23:45.659Z,3.14
2022-10-26T14:26:11.993Z,2.97
2022-10-26T14:28:38.332Z,2.82
2022-10-26T14:31:04.658Z,2.90
2022-10-26T14:33:30.979Z,2.98
2022-10-26T14:35:57.309Z,2.77
2022-10-26T14:38:23.636Z,2.91
2022-10-26T14:40:49.965Z,2.88
2022-10-26T14:43:16.283Z,2.88
2022-10-26T14:45:48.387Z,3.00
2022-10-26T14:48:15.419Z,2.72
2022-10-26T14:50:41.749Z,2.77
2022-10-26T14:53:08.075Z,2.84
2022-10-26T14:55:34.416Z,2.66
2022-10-26T14:58:00.751Z,2.92
2022-10-26T15:00:27.066Z,2.84
2022-10-26T15:05:24.616Z,2.87
2022-10-26T15:07:51.095Z,2.89
2022-10-26T15:10:17.704Z,2.75
2022-10-26T15:12:44.034Z,2.76
2022-10-26T15:15:10.428Z,2.87
2022-10-26T15:17:36.810Z,2.89
2022-10-26T15:20:03.208Z,2.77
2022-10-26T15:22:32.351Z,2.66
2022-10-26T15:24:58.899Z,2.65
2022-10-26T15:27:25.229Z,2.91
2022-10-26T15:29:51.560Z,2.51
2022-10-26T15:32:17.893Z,2.90
2022-10-26T15:34:44.215Z,2.98
2022-10-26T15:37:10.564Z,2.67
2022-10-26T15:39:36.929Z,2.68
2022-10-26T15:42:03.244Z,2.65
2022-10-26T15:44:29.559Z,2.65
2022-10-26T15:46:55.877Z,2.89
2022-10-26T15:49:22.203Z,2.68
2022-10-26T15:51:48.539Z,2.86
2022-10-26T15:54:14.859Z,2.64
2022-10-26T15:56:41.191Z,2.63
2022-10-26T15:59:07.510Z,2.90
2022-10-26T16:01:33.932Z,2.47
2022-10-26T16:04:00.323Z,2.69
2022-10-26T16:06:26.649Z,2.59
2022-10-26T16:08:52.971Z,2.56
2022-10-26T16:11:19.296Z,2.81
2022-10-26T16:13:45.660Z,2.73
2022-10-26T16:16:12.033Z,2.67
2022-10-26T16:18:38.365Z,2.71
2022-10-26T16:21:04.695Z,2.73
2022-10-26T16:23:31.027Z,2.72
2022-10-26T16:25:57.352Z,2.73
2022-10-26T16:28:23.660Z,2.84
2022-10-26T16:30:49.977Z,2.75
2022-10-26T16:33:16.313Z,2.70
2022-10-26T16:35:42.638Z,2.80
2022-10-26T16:38:08.967Z,2.42
2022-10-26T16:40:35.297Z,2.72
2022-10-26T16:43:01.624Z,3.10
2022-10-26T16:45:27.943Z,2.55
2022-10-26T16:47:54.325Z,2.87
2022-10-26T16:50:20.662Z,2.64
2022-10-26T16:52:46.996Z,2.83
2022-10-26T16:55:13.319Z,2.83
2022-10-26T16:57:39.678Z,2.82
2022-10-26T17:00:06.007Z,2.57
2022-10-26T17:02:32.461Z,2.71
2022-10-26T17:05:01.343Z,2.89
2022-10-26T17:07:30.668Z,2.89
2022-10-26T17:09:57.001Z,2.73
2022-10-26T17:12:23.353Z,2.80
2022-10-26T17:14:49.715Z,2.69
2022-10-26T17:17:16.039Z,2.85
2022-10-26T17:19:42.364Z,3.04
2022-10-26T17:22:08.916Z,2.77
2022-10-26T17:24:35.337Z,2.77
2022-10-26T17:27:01.654Z,2.54
2022-10-26T17:29:27.988Z,2.54
2022-10-26T17:31:54.319Z,2.82
2022-10-26T17:34:21.141Z,2.71
2022-10-26T17:36:47.476Z,2.87
2022-10-26T17:39:13.800Z,2.68
2022-10-26T17:41:40.134Z,2.64
2022-10-26T17:44:06.811Z,2.87
2022-10-26T17:46:33.156Z,3.89
2022-10-26T17:48:59.476Z,4.19
2022-10-26T17:51:25.799Z,4.12
2022-10-26T17:53:52.122Z,3.90
2022-10-26T17:56:18.443Z,3.90
2022-10-26T17:58:47.171Z,3.82
2022-10-26T18:01:14.154Z,3.66
2022-10-26T18:03:41.019Z,3.80
2022-10-26T18:06:07.340Z,3.82
2022-10-26T18:08:37.847Z,3.77
2022-10-26T18:11:06.282Z,3.94
2022-10-26T18:13:33.098Z,3.96
2022-10-26T18:16:00.452Z,3.93
2022-10-26T18:18:28.964Z,4.03
2022-10-26T18:20:56.006Z,3.99
2022-10-26T18:23:22.569Z,4.10
2022-10-26T18:25:53.990Z,4.33
2022-10-26T18:28:20.843Z,4.15
2022-10-26T18:30:47.704Z,4.38
2022-10-26T18:33:14.491Z,4.11
2022-10-26T18:35:41.467Z,4.15
2022-10-26T18:38:07.824Z,4.79
2022-10-26T18:40:34.164Z,4.72
2022-10-26T18:43:00.487Z,4.85
2022-10-26T18:45:26.812Z,4.57
2022-10-26T18:47:53.370Z,4.83
2022-10-26T18:50:19.961Z,5.16
2022-10-26T18:52:46.296Z,4.97
2022-10-26T18:55:12.629Z,4.68
2022-10-26T18:57:38.951Z,4.97
2022-10-26T19:00:05.276Z,4.86
2022-10-26T19:02:31.622Z,4.99
2022-10-26T19:04:57.947Z,5.47
2022-10-26T19:07:24.276Z,5.61
2022-10-26T19:09:50.596Z,5.72
2022-10-26T19:12:16.926Z,5.38
2022-10-26T19:14:43.255Z,5.26
2022-10-26T19:17:09.579Z,5.43
2022-10-26T19:19:35.903Z,5.74
2022-10-26T19:22:02.227Z,5.89
2022-10-26T19:24:28.540Z,6.32
2022-10-26T19:26:54.873Z,6.04
2022-10-26T19:29:21.193Z,6.08
2022-10-26T19:31:47.535Z,5.75
2022-10-26T19:34:13.886Z,6.27
2022-10-26T19:36:40.220Z,6.24
2022-10-26T19:39:06.546Z,6.11
2022-10-26T19:41:32.876Z,6.38
2022-10-26T19:46:30.420Z,6.31
2022-10-26T19:48:56.739Z,6.10
2022-10-26T19:51:23.067Z,6.24
2022-10-26T19:53:49.383Z,5.91
2022-10-26T19:56:15.725Z,5.97
2022-10-26T19:58:42.052Z,6.15
2022-10-26T20:01:08.404Z,6.47
2022-10-26T20:03:34.780Z,6.19
2022-10-26T20:06:01.108Z,5.93
2022-10-26T20:08:27.436Z,6.11
2022-10-26T20:10:53.763Z,5.80
2022-10-26T20:13:20.081Z,6.16
2022-10-26T20:15:46.425Z,5.88
2022-10-26T20:18:12.743Z,6.23
2022-10-26T20:20:39.075Z,5.49
2022-10-26T20:23:05.414Z,5.35
2022-10-26T20:25:31.740Z,5.55
2022-10-26T20:27:58.067Z,5.07
2022-10-26T20:30:24.391Z,4.88
2022-10-26T20:32:50.726Z,4.86
2022-10-26T20:35:17.052Z,4.48
2022-10-26T20:37:43.376Z,4.86
2022-10-26T20:40:09.713Z,4.95
2022-10-26T20:42:36.115Z,4.53
2022-10-26T20:45:02.505Z,4.66
2022-10-26T20:47:28.833Z,4.99
2022-10-26T20:49:55.164Z,4.33
2022-10-26T20:52:22.025Z,4.82
2022-10-26T20:54:48.548Z,4.57
2022-10-26T20:57:14.879Z,4.88
2022-10-26T20:59:41.211Z,4.88
2022-10-26T21:02:07.580Z,5.13
2022-10-26T21:04:33.949Z,5.09
2022-10-26T21:07:00.280Z,4.93
2022-10-26T21:09:27.634Z,4.57
2022-10-26T21:11:54.866Z,4.79
2022-10-26T21:14:21.183Z,4.62
2022-10-26T21:16:47.508Z,4.84
2022-10-26T21:19:13.829Z,4.65
2022-10-26T21:21:40.161Z,4.96
2022-10-26T21:24:06.491Z,5.14
2022-10-26T21:26:32.827Z,5.13
2022-10-26T21:28:59.147Z,4.92
2022-10-26T21:31:25.471Z,4.78
2022-10-26T21:33:51.804Z,4.66
2022-10-26T21:36:18.131Z,4.63
2022-10-26T21:38:44.477Z,4.62
2022-10-26T21:41:10.861Z,4.72
2022-10-26T21:43:37.213Z,4.79
2022-10-26T21:46:03.914Z,4.85
2022-10-26T21:48:30.383Z,4.79
2022-10-26T21:50:56.700Z,4.89
2022-10-26T21:53:23.020Z,4.52
2022-10-26T21:55:49.352Z,4.97
2022-10-26T21:58:15.687Z,4.69
2022-10-26T22:00:42.068Z,4.86
2022-10-26T22:03:08.441Z,4.86
2022-10-26T22:05:34.772Z,4.58
2022-10-26T22:08:01.102Z,4.48
2022-10-26T22:10:27.424Z,4.90
2022-10-26T22:12:53.756Z,4.66
2022-10-26T22:15:20.087Z,4.63
2022-10-26T22:17:46.416Z,4.71
2022-10-26T22:20:12.744Z,4.42
2022-10-26T22:22:39.079Z,4.71
2022-10-26T22:25:05.402Z,4.35
2022-10-26T22:27:31.732Z,4.45
2022-10-26T22:29:58.065Z,4.45
2022-10-26T22:32:24.400Z,4.52
2022-10-26T22:34:53.161Z,4.78
2022-10-26T22:37:26.547Z,4.66
2022-10-26T22:39:52.866Z,4.72
2022-10-26T22:42:19.184Z,4.44
2022-10-26T22:44:45.508Z,4.53
2022-10-26T22:47:11.823Z,4.53
2022-10-26T22:49:38.156Z,4.44
2022-10-26T22:52:04.481Z,4.82
2022-10-26T22:54:30.808Z,4.79
2022-10-26T22:56:57.128Z,4.46
2022-10-26T22:59:23.466Z,4.55
2022-10-26T23:01:49.861Z,4.60
2022-10-26T23:04:16.260Z,4.54
2022-10-26T23:06:42.592Z,4.63
2022-10-26T23:09:08.912Z,4.89
2022-10-26T23:11:35.229Z,4.45
2022-10-26T23:14:01.560Z,4.36
2022-10-26T23:16:27.890Z,4.49
2022-10-26T23:18:54.225Z,4.64
2022-10-26T23:21:20.609Z,4.88
2022-10-26T23:23:46.971Z,4.71
2022-10-26T23:26:13.297Z,4.62
2022-10-26T23:28:39.663Z,4.59
2022-10-26T23:31:05.989Z,4.55
2022-10-26T23:33:32.325Z,4.50
2022-10-26T23:35:58.656Z,4.61
2022-10-26T23:38:24.979Z,4.29
2022-10-26T23:40:51.300Z,4.34
2022-10-26T23:43:17.637Z,4.31
2022-10-26T23:45:43.968Z,4.74
2022-10-26T23:48:10.300Z,4.42
2022-10-26T23:50:36.623Z,4.41
2022-10-26T23:53:02.955Z,4.12
2022-10-26T23:55:29.281Z,4.25
2022-10-26T23:57:55.600Z,4.33
